sensor_id;sensor_type;location;lat;lon;timestamp;temperature;humidity
15241;DHT22;7723;52.170;9.978;2023-04-24T00:00:30;11.70;99.90
15241;DHT22;7723;52.170;9.978;2023-04-24T00:02:58;11.70;99.90
15241;DHT22;7723;52.170;9.978;2023-04-24T00:05:25;11.70;99.90
15241;DHT22;7723;52.170;9.978;2023-04-24T00:07:52;11.80;99.90
15241;DHT22;7723;52.170;9.978;2023-04-24T00:10:21;11.70;99.90
15241;DHT22;7723;52.170;9.978;2023-04-24T00:12:48;11.60;99.90
15241;DHT22;7723;52.170;9.978;2023-04-24T00:15:15;11.60;99.90
15241;DHT22;7723;52.170;9.978;2023-04-24T00:17:42;11.60;99.90
15241;DHT22;7723;52.170;9.978;2023-04-24T00:20:10;11.50;99.90
15241;DHT22;7723;52.170;9.978;2023-04-24T00:22:37;11.50;99.90
15241;DHT22;7723;52.170;9.978;2023-04-24T00:25:06;11.40;99.90
15241;DHT22;7723;52.170;9.978;2023-04-24T00:27:34;11.40;99.90
15241;DHT22;7723;52.170;9.978;2023-04-24T00:30:03;11.40;99.90
15241;DHT22;7723;52.170;9.978;2023-04-24T00:32:31;11.30;99.90
15241;DHT22;7723;52.170;9.978;2023-04-24T00:34:58;11.30;99.90
15241;DHT22;7723;52.170;9.978;2023-04-24T00:37:25;11.30;99.90
15241;DHT22;7723;52.170;9.978;2023-04-24T00:39:52;11.30;99.90
15241;DHT22;7723;52.170;9.978;2023-04-24T00:42:19;11.30;99.90
15241;DHT22;7723;52.170;9.978;2023-04-24T00:44:48;11.30;99.90
15241;DHT22;7723;52.170;9.978;2023-04-24T00:47:15;11.30;99.90
15241;DHT22;7723;52.170;9.978;2023-04-24T00:49:43;11.20;99.90
15241;DHT22;7723;52.170;9.978;2023-04-24T00:52:10;11.20;99.90
15241;DHT22;7723;52.170;9.978;2023-04-24T00:54:38;11.10;99.90
15241;DHT22;7723;52.170;9.978;2023-04-24T00:57:05;11.10;99.90
15241;DHT22;7723;52.170;9.978;2023-04-24T00:59:32;11.20;99.90
15241;DHT22;7723;52.170;9.978;2023-04-24T01:02:01;11.10;99.90
15241;DHT22;7723;52.170;9.978;2023-04-24T01:04:29;11.00;99.90
15241;DHT22;7723;52.170;9.978;2023-04-24T01:06:57;10.90;99.90
15241;DHT22;7723;52.170;9.978;2023-04-24T01:09:24;10.80;99.90
15241;DHT22;7723;52.170;9.978;2023-04-24T01:11:51;10.70;99.90
15241;DHT22;7723;52.170;9.978;2023-04-24T01:14:20;10.60;99.90
15241;DHT22;7723;52.170;9.978;2023-04-24T01:16:47;10.50;99.90
15241;DHT22;7723;52.170;9.978;2023-04-24T01:19:16;10.50;99.90
15241;DHT22;7723;52.170;9.978;2023-04-24T01:21:47;10.50;99.90
15241;DHT22;7723;52.170;9.978;2023-04-24T01:24:18;10.50;99.90
15241;DHT22;7723;52.170;9.978;2023-04-24T01:26:46;10.50;99.90
15241;DHT22;7723;52.170;9.978;2023-04-24T01:29:13;10.50;99.90
15241;DHT22;7723;52.170;9.978;2023-04-24T01:31:41;10.50;99.90
15241;DHT22;7723;52.170;9.978;2023-04-24T01:34:08;10.50;99.90
15241;DHT22;7723;52.170;9.978;2023-04-24T01:36:35;10.40;99.90
15241;DHT22;7723;52.170;9.978;2023-04-24T01:39:03;10.40;99.90
15241;DHT22;7723;52.170;9.978;2023-04-24T01:41:31;10.40;99.90
15241;DHT22;7723;52.170;9.978;2023-04-24T01:43:59;10.40;99.90
15241;DHT22;7723;52.170;9.978;2023-04-24T01:46:26;10.40;99.90
15241;DHT22;7723;52.170;9.978;2023-04-24T01:48:53;10.40;99.90
15241;DHT22;7723;52.170;9.978;2023-04-24T01:51:22;10.50;99.90
15241;DHT22;7723;52.170;9.978;2023-04-24T01:53:49;10.50;99.90
15241;DHT22;7723;52.170;9.978;2023-04-24T01:56:16;10.50;99.90
15241;DHT22;7723;52.170;9.978;2023-04-24T01:58:45;10.50;99.90
15241;DHT22;7723;52.170;9.978;2023-04-24T02:01:17;10.60;99.90
15241;DHT22;7723;52.170;9.978;2023-04-24T02:03:44;10.50;99.90
15241;DHT22;7723;52.170;9.978;2023-04-24T02:06:11;10.50;99.90
15241;DHT22;7723;52.170;9.978;2023-04-24T02:08:39;10.50;99.90
15241;DHT22;7723;52.170;9.978;2023-04-24T02:11:06;10.40;99.90
15241;DHT22;7723;52.170;9.978;2023-04-24T02:13:33;10.40;99.90
15241;DHT22;7723;52.170;9.978;2023-04-24T02:16:01;10.30;99.90
15241;DHT22;7723;52.170;9.978;2023-04-24T02:18:28;10.30;99.90
15241;DHT22;7723;52.170;9.978;2023-04-24T02:20:55;10.30;99.90
15241;DHT22;7723;52.170;9.978;2023-04-24T02:23:22;10.20;99.90
15241;DHT22;7723;52.170;9.978;2023-04-24T02:25:49;10.00;99.90
15241;DHT22;7723;52.170;9.978;2023-04-24T02:28:19;10.00;99.90
15241;DHT22;7723;52.170;9.978;2023-04-24T02:30:46;9.90;99.90
15241;DHT22;7723;52.170;9.978;2023-04-24T02:33:14;9.90;99.90
15241;DHT22;7723;52.170;9.978;2023-04-24T02:35:41;9.80;99.90
15241;DHT22;7723;52.170;9.978;2023-04-24T02:38:08;9.70;99.90
15241;DHT22;7723;52.170;9.978;2023-04-24T02:40:35;9.70;99.90
15241;DHT22;7723;52.170;9.978;2023-04-24T02:43:02;9.60;99.90
15241;DHT22;7723;52.170;9.978;2023-04-24T02:45:30;9.60;99.90
15241;DHT22;7723;52.170;9.978;2023-04-24T02:47:57;9.60;99.90
15241;DHT22;7723;52.170;9.978;2023-04-24T02:50:25;9.50;99.90
15241;DHT22;7723;52.170;9.978;2023-04-24T02:52:52;9.50;99.90
15241;DHT22;7723;52.170;9.978;2023-04-24T02:55:19;9.40;99.90
15241;DHT22;7723;52.170;9.978;2023-04-24T02:57:46;9.40;99.90
15241;DHT22;7723;52.170;9.978;2023-04-24T03:00:20;9.30;99.90
15241;DHT22;7723;52.170;9.978;2023-04-24T03:02:47;9.30;99.90
15241;DHT22;7723;52.170;9.978;2023-04-24T03:05:15;9.30;99.90
15241;DHT22;7723;52.170;9.978;2023-04-24T03:07:43;9.30;99.90
15241;DHT22;7723;52.170;9.978;2023-04-24T03:10:11;9.30;99.90
15241;DHT22;7723;52.170;9.978;2023-04-24T03:12:38;9.30;99.90
15241;DHT22;7723;52.170;9.978;2023-04-24T03:15:06;9.30;99.90
15241;DHT22;7723;52.170;9.978;2023-04-24T03:17:33;9.30;99.90
15241;DHT22;7723;52.170;9.978;2023-04-24T03:20:01;9.20;99.90
15241;DHT22;7723;52.170;9.978;2023-04-24T03:22:28;9.20;99.90
15241;DHT22;7723;52.170;9.978;2023-04-24T03:24:56;9.20;99.90
15241;DHT22;7723;52.170;9.978;2023-04-24T03:27:23;9.30;99.90
15241;DHT22;7723;52.170;9.978;2023-04-24T03:29:50;9.20;99.90
15241;DHT22;7723;52.170;9.978;2023-04-24T03:32:21;9.20;99.90
15241;DHT22;7723;52.170;9.978;2023-04-24T03:34:48;9.10;99.90
15241;DHT22;7723;52.170;9.978;2023-04-24T03:37:15;9.10;99.90
15241;DHT22;7723;52.170;9.978;2023-04-24T03:39:43;9.10;99.90
15241;DHT22;7723;52.170;9.978;2023-04-24T03:42:11;9.20;99.90
15241;DHT22;7723;52.170;9.978;2023-04-24T03:44:38;9.30;99.90
15241;DHT22;7723;52.170;9.978;2023-04-24T03:47:05;9.20;99.90
15241;DHT22;7723;52.170;9.978;2023-04-24T03:49:32;9.20;99.90
15241;DHT22;7723;52.170;9.978;2023-04-24T03:51:59;9.20;99.90
15241;DHT22;7723;52.170;9.978;2023-04-24T03:54:27;9.00;99.90
15241;DHT22;7723;52.170;9.978;2023-04-24T03:56:54;9.00;99.90
15241;DHT22;7723;52.170;9.978;2023-04-24T03:59:22;9.00;99.90
15241;DHT22;7723;52.170;9.978;2023-04-24T04:01:49;8.90;99.90
15241;DHT22;7723;52.170;9.978;2023-04-24T04:04:16;8.90;99.90
15241;DHT22;7723;52.170;9.978;2023-04-24T04:06:43;8.80;99.90
15241;DHT22;7723;52.170;9.978;2023-04-24T04:09:12;8.80;99.90
15241;DHT22;7723;52.170;9.978;2023-04-24T04:11:39;8.80;99.90
15241;DHT22;7723;52.170;9.978;2023-04-24T04:14:06;8.80;99.90
15241;DHT22;7723;52.170;9.978;2023-04-24T04:16:35;8.90;99.90
15241;DHT22;7723;52.170;9.978;2023-04-24T04:19:03;8.90;99.90
15241;DHT22;7723;52.170;9.978;2023-04-24T04:21:31;8.90;99.90
15241;DHT22;7723;52.170;9.978;2023-04-24T04:23:58;8.90;99.90
15241;DHT22;7723;52.170;9.978;2023-04-24T04:26:25;9.00;99.90
15241;DHT22;7723;52.170;9.978;2023-04-24T04:28:52;9.00;99.90
15241;DHT22;7723;52.170;9.978;2023-04-24T04:31:20;9.10;99.90
15241;DHT22;7723;52.170;9.978;2023-04-24T04:33:50;9.20;99.90
15241;DHT22;7723;52.170;9.978;2023-04-24T04:36:17;9.30;99.90
15241;DHT22;7723;52.170;9.978;2023-04-24T04:38:45;9.30;99.90
15241;DHT22;7723;52.170;9.978;2023-04-24T04:41:12;9.40;99.90
15241;DHT22;7723;52.170;9.978;2023-04-24T04:43:41;9.50;99.90
15241;DHT22;7723;52.170;9.978;2023-04-24T04:46:10;9.70;99.90
15241;DHT22;7723;52.170;9.978;2023-04-24T04:48:37;9.80;99.90
15241;DHT22;7723;52.170;9.978;2023-04-24T04:51:06;9.90;99.90
15241;DHT22;7723;52.170;9.978;2023-04-24T04:53:33;10.00;99.90
15241;DHT22;7723;52.170;9.978;2023-04-24T04:56:00;10.10;99.90
15241;DHT22;7723;52.170;9.978;2023-04-24T04:58:28;10.20;99.90
15241;DHT22;7723;52.170;9.978;2023-04-24T05:00:55;10.20;99.90
15241;DHT22;7723;52.170;9.978;2023-04-24T05:03:22;10.30;99.90
15241;DHT22;7723;52.170;9.978;2023-04-24T05:05:50;10.40;99.90
15241;DHT22;7723;52.170;9.978;2023-04-24T05:08:18;10.50;99.90
15241;DHT22;7723;52.170;9.978;2023-04-24T05:10:45;10.50;99.90
15241;DHT22;7723;52.170;9.978;2023-04-24T05:13:12;10.60;99.90
15241;DHT22;7723;52.170;9.978;2023-04-24T05:15:39;10.70;99.90
15241;DHT22;7723;52.170;9.978;2023-04-24T05:18:06;10.70;99.90
15241;DHT22;7723;52.170;9.978;2023-04-24T05:20:33;10.70;99.90
15241;DHT22;7723;52.170;9.978;2023-04-24T05:23:00;10.70;99.90
15241;DHT22;7723;52.170;9.978;2023-04-24T05:25:29;10.80;99.90
15241;DHT22;7723;52.170;9.978;2023-04-24T05:28:00;10.70;99.90
15241;DHT22;7723;52.170;9.978;2023-04-24T05:30:28;10.80;99.90
15241;DHT22;7723;52.170;9.978;2023-04-24T05:32:55;10.80;99.90
15241;DHT22;7723;52.170;9.978;2023-04-24T05:35:22;10.90;99.90
15241;DHT22;7723;52.170;9.978;2023-04-24T05:37:49;10.90;99.90
15241;DHT22;7723;52.170;9.978;2023-04-24T05:40:16;11.00;99.90
15241;DHT22;7723;52.170;9.978;2023-04-24T05:42:45;11.00;99.90
15241;DHT22;7723;52.170;9.978;2023-04-24T05:45:12;11.00;99.90
15241;DHT22;7723;52.170;9.978;2023-04-24T05:47:42;11.10;99.90
15241;DHT22;7723;52.170;9.978;2023-04-24T05:50:10;11.10;99.90
15241;DHT22;7723;52.170;9.978;2023-04-24T05:52:37;11.20;99.90
15241;DHT22;7723;52.170;9.978;2023-04-24T05:55:05;11.20;99.90
15241;DHT22;7723;52.170;9.978;2023-04-24T05:57:33;11.20;99.90
15241;DHT22;7723;52.170;9.978;2023-04-24T06:00:02;11.30;99.90
15241;DHT22;7723;52.170;9.978;2023-04-24T06:02:30;11.40;99.90
15241;DHT22;7723;52.170;9.978;2023-04-24T06:04:58;11.60;99.90
15241;DHT22;7723;52.170;9.978;2023-04-24T06:07:26;11.80;99.90
15241;DHT22;7723;52.170;9.978;2023-04-24T06:09:53;12.10;99.90
15241;DHT22;7723;52.170;9.978;2023-04-24T06:12:20;12.60;99.90
15241;DHT22;7723;52.170;9.978;2023-04-24T06:14:47;13.20;99.90
15241;DHT22;7723;52.170;9.978;2023-04-24T06:17:16;13.50;99.90
15241;DHT22;7723;52.170;9.978;2023-04-24T06:19:43;13.50;99.90
15241;DHT22;7723;52.170;9.978;2023-04-24T06:22:10;13.50;99.90
15241;DHT22;7723;52.170;9.978;2023-04-24T06:24:37;13.30;99.90
15241;DHT22;7723;52.170;9.978;2023-04-24T06:27:04;13.20;99.90
15241;DHT22;7723;52.170;9.978;2023-04-24T06:29:32;12.90;99.90
15241;DHT22;7723;52.170;9.978;2023-04-24T06:31:59;12.70;99.90
15241;DHT22;7723;52.170;9.978;2023-04-24T06:34:28;12.40;99.90
15241;DHT22;7723;52.170;9.978;2023-04-24T06:36:56;12.60;99.90
15241;DHT22;7723;52.170;9.978;2023-04-24T06:39:23;11.30;99.90
15241;DHT22;7723;52.170;9.978;2023-04-24T06:41:50;11.00;99.90
15241;DHT22;7723;52.170;9.978;2023-04-24T06:44:17;10.70;99.90
15241;DHT22;7723;52.170;9.978;2023-04-24T06:46:44;10.50;99.90
15241;DHT22;7723;52.170;9.978;2023-04-24T06:49:11;10.50;99.90
15241;DHT22;7723;52.170;9.978;2023-04-24T06:51:42;10.40;99.90
15241;DHT22;7723;52.170;9.978;2023-04-24T06:54:10;10.50;99.90
15241;DHT22;7723;52.170;9.978;2023-04-24T06:56:37;10.50;99.90
15241;DHT22;7723;52.170;9.978;2023-04-24T06:59:04;10.60;99.90
15241;DHT22;7723;52.170;9.978;2023-04-24T07:01:31;10.70;99.90
15241;DHT22;7723;52.170;9.978;2023-04-24T07:03:59;10.70;99.90
15241;DHT22;7723;52.170;9.978;2023-04-24T07:06:26;10.80;99.90
15241;DHT22;7723;52.170;9.978;2023-04-24T07:08:54;11.00;99.90
15241;DHT22;7723;52.170;9.978;2023-04-24T07:11:22;11.10;99.90
15241;DHT22;7723;52.170;9.978;2023-04-24T07:13:49;11.20;99.90
15241;DHT22;7723;52.170;9.978;2023-04-24T07:16:16;11.30;99.90
15241;DHT22;7723;52.170;9.978;2023-04-24T07:18:43;11.30;99.90
15241;DHT22;7723;52.170;9.978;2023-04-24T07:21:10;11.40;99.90
15241;DHT22;7723;52.170;9.978;2023-04-24T07:23:37;11.50;99.90
15241;DHT22;7723;52.170;9.978;2023-04-24T07:26:08;11.80;99.90
15241;DHT22;7723;52.170;9.978;2023-04-24T07:28:35;12.00;99.90
15241;DHT22;7723;52.170;9.978;2023-04-24T07:31:02;12.20;99.90
15241;DHT22;7723;52.170;9.978;2023-04-24T07:33:29;12.60;99.90
15241;DHT22;7723;52.170;9.978;2023-04-24T07:35:56;12.70;99.90
15241;DHT22;7723;52.170;9.978;2023-04-24T07:38:23;12.60;99.90
15241;DHT22;7723;52.170;9.978;2023-04-24T07:40:51;12.50;99.90
15241;DHT22;7723;52.170;9.978;2023-04-24T07:43:20;12.40;99.90
15241;DHT22;7723;52.170;9.978;2023-04-24T07:45:47;12.30;99.90
15241;DHT22;7723;52.170;9.978;2023-04-24T07:48:14;12.40;99.90
15241;DHT22;7723;52.170;9.978;2023-04-24T07:50:43;12.40;99.90
15241;DHT22;7723;52.170;9.978;2023-04-24T07:53:10;12.80;58.70
15241;DHT22;7723;52.170;9.978;2023-04-24T07:55:37;13.10;9.10
15241;DHT22;7723;52.170;9.978;2023-04-24T07:58:05;13.90;1.00
15241;DHT22;7723;52.170;9.978;2023-04-24T08:00:33;14.80;1.00
15241;DHT22;7723;52.170;9.978;2023-04-24T08:03:00;15.80;1.00
15241;DHT22;7723;52.170;9.978;2023-04-24T08:05:28;16.40;1.00
15241;DHT22;7723;52.170;9.978;2023-04-24T08:07:55;16.70;1.00
15241;DHT22;7723;52.170;9.978;2023-04-24T08:10:22;16.10;1.00
15241;DHT22;7723;52.170;9.978;2023-04-24T08:12:50;15.40;1.00
15241;DHT22;7723;52.170;9.978;2023-04-24T08:15:17;15.00;1.00
15241;DHT22;7723;52.170;9.978;2023-04-24T08:17:46;14.40;1.00
15241;DHT22;7723;52.170;9.978;2023-04-24T08:20:13;14.10;1.00
15241;DHT22;7723;52.170;9.978;2023-04-24T08:22:40;14.10;1.00
15241;DHT22;7723;52.170;9.978;2023-04-24T08:25:08;14.70;1.00
15241;DHT22;7723;52.170;9.978;2023-04-24T08:27:35;15.10;1.00
15241;DHT22;7723;52.170;9.978;2023-04-24T08:30:05;15.80;1.00
15241;DHT22;7723;52.170;9.978;2023-04-24T08:32:32;16.20;1.00
15241;DHT22;7723;52.170;9.978;2023-04-24T08:35:01;16.80;1.00
15241;DHT22;7723;52.170;9.978;2023-04-24T08:37:28;17.00;1.00
15241;DHT22;7723;52.170;9.978;2023-04-24T08:39:55;17.20;1.00
15241;DHT22;7723;52.170;9.978;2023-04-24T08:42:22;17.60;1.00
15241;DHT22;7723;52.170;9.978;2023-04-24T08:44:50;17.50;1.00
15241;DHT22;7723;52.170;9.978;2023-04-24T08:47:18;17.20;1.00
15241;DHT22;7723;52.170;9.978;2023-04-24T08:49:48;16.80;1.00
15241;DHT22;7723;52.170;9.978;2023-04-24T08:52:18;16.60;1.00
15241;DHT22;7723;52.170;9.978;2023-04-24T08:54:46;17.00;1.00
15241;DHT22;7723;52.170;9.978;2023-04-24T08:57:14;17.40;1.00
15241;DHT22;7723;52.170;9.978;2023-04-24T08:59:42;17.40;1.00
15241;DHT22;7723;52.170;9.978;2023-04-24T09:02:10;18.00;1.00
15241;DHT22;7723;52.170;9.978;2023-04-24T09:04:38;18.20;1.00
15241;DHT22;7723;52.170;9.978;2023-04-24T09:07:06;18.30;1.00
15241;DHT22;7723;52.170;9.978;2023-04-24T09:09:38;18.00;1.00
15241;DHT22;7723;52.170;9.978;2023-04-24T09:12:05;17.70;1.00
15241;DHT22;7723;52.170;9.978;2023-04-24T09:14:35;17.90;1.00
15241;DHT22;7723;52.170;9.978;2023-04-24T09:17:05;17.50;1.00
15241;DHT22;7723;52.170;9.978;2023-04-24T09:19:32;17.20;1.00
15241;DHT22;7723;52.170;9.978;2023-04-24T09:21:59;17.00;1.00
15241;DHT22;7723;52.170;9.978;2023-04-24T09:24:31;16.70;1.00
15241;DHT22;7723;52.170;9.978;2023-04-24T09:26:59;16.90;1.00
15241;DHT22;7723;52.170;9.978;2023-04-24T09:29:28;16.40;1.00
15241;DHT22;7723;52.170;9.978;2023-04-24T09:31:55;16.50;1.00
15241;DHT22;7723;52.170;9.978;2023-04-24T09:34:23;16.00;1.00
15241;DHT22;7723;52.170;9.978;2023-04-24T09:36:51;15.10;1.00
15241;DHT22;7723;52.170;9.978;2023-04-24T09:39:19;14.50;1.00
15241;DHT22;7723;52.170;9.978;2023-04-24T09:41:47;14.30;1.00
15241;DHT22;7723;52.170;9.978;2023-04-24T09:44:17;14.40;1.00
15241;DHT22;7723;52.170;9.978;2023-04-24T09:46:49;14.70;1.00
15241;DHT22;7723;52.170;9.978;2023-04-24T09:49:21;14.60;1.00
15241;DHT22;7723;52.170;9.978;2023-04-24T09:51:49;14.40;1.00
15241;DHT22;7723;52.170;9.978;2023-04-24T09:54:17;14.20;1.00
15241;DHT22;7723;52.170;9.978;2023-04-24T09:56:47;14.40;1.00
15241;DHT22;7723;52.170;9.978;2023-04-24T09:59:17;14.50;1.00
15241;DHT22;7723;52.170;9.978;2023-04-24T10:01:45;14.40;1.00
15241;DHT22;7723;52.170;9.978;2023-04-24T10:04:18;14.40;1.00
15241;DHT22;7723;52.170;9.978;2023-04-24T10:06:46;14.40;1.00
15241;DHT22;7723;52.170;9.978;2023-04-24T10:09:14;14.20;1.00
15241;DHT22;7723;52.170;9.978;2023-04-24T10:11:43;14.20;1.00
15241;DHT22;7723;52.170;9.978;2023-04-24T10:14:12;14.20;1.00
15241;DHT22;7723;52.170;9.978;2023-04-24T10:16:43;13.90;1.00
15241;DHT22;7723;52.170;9.978;2023-04-24T10:19:12;13.70;1.00
15241;DHT22;7723;52.170;9.978;2023-04-24T10:21:41;13.50;1.00
15241;DHT22;7723;52.170;9.978;2023-04-24T10:24:12;13.30;1.00
15241;DHT22;7723;52.170;9.978;2023-04-24T10:26:40;13.10;1.00
15241;DHT22;7723;52.170;9.978;2023-04-24T10:29:08;14.10;1.00
15241;DHT22;7723;52.170;9.978;2023-04-24T10:31:38;13.10;1.00
15241;DHT22;7723;52.170;9.978;2023-04-24T10:34:08;13.00;1.00
15241;DHT22;7723;52.170;9.978;2023-04-24T10:36:38;12.80;1.00
15241;DHT22;7723;52.170;9.978;2023-04-24T10:39:08;12.80;1.00
15241;DHT22;7723;52.170;9.978;2023-04-24T10:41:37;13.20;1.00
15241;DHT22;7723;52.170;9.978;2023-04-24T10:44:05;13.40;1.00
15241;DHT22;7723;52.170;9.978;2023-04-24T10:46:33;13.60;1.00
15241;DHT22;7723;52.170;9.978;2023-04-24T10:49:03;13.50;1.00
15241;DHT22;7723;52.170;9.978;2023-04-24T10:51:46;13.40;1.00
15241;DHT22;7723;52.170;9.978;2023-04-24T10:54:24;13.50;1.00
15241;DHT22;7723;52.170;9.978;2023-04-24T10:56:52;13.80;1.00
15241;DHT22;7723;52.170;9.978;2023-04-24T10:59:25;13.80;1.00
15241;DHT22;7723;52.170;9.978;2023-04-24T11:01:53;13.70;1.00
15241;DHT22;7723;52.170;9.978;2023-04-24T11:04:30;13.60;1.00
15241;DHT22;7723;52.170;9.978;2023-04-24T11:06:59;13.30;1.00
15241;DHT22;7723;52.170;9.978;2023-04-24T11:09:27;13.00;1.00
15241;DHT22;7723;52.170;9.978;2023-04-24T11:12:04;12.80;1.00
15241;DHT22;7723;52.170;9.978;2023-04-24T11:15:00;12.40;1.00
15241;DHT22;7723;52.170;9.978;2023-04-24T11:17:32;12.40;1.00
15241;DHT22;7723;52.170;9.978;2023-04-24T11:20:02;12.60;1.00
15241;DHT22;7723;52.170;9.978;2023-04-24T11:22:34;13.00;1.00
15241;DHT22;7723;52.170;9.978;2023-04-24T11:25:02;13.30;1.00
15241;DHT22;7723;52.170;9.978;2023-04-24T11:27:31;13.50;1.00
15241;DHT22;7723;52.170;9.978;2023-04-24T11:30:00;13.60;1.00
15241;DHT22;7723;52.170;9.978;2023-04-24T11:32:29;13.60;1.00
15241;DHT22;7723;52.170;9.978;2023-04-24T11:34:59;13.50;1.00
15241;DHT22;7723;52.170;9.978;2023-04-24T11:37:28;13.50;1.00
15241;DHT22;7723;52.170;9.978;2023-04-24T11:39:58;13.30;1.00
15241;DHT22;7723;52.170;9.978;2023-04-24T11:42:25;13.20;1.00
15241;DHT22;7723;52.170;9.978;2023-04-24T11:44:53;13.10;1.00
15241;DHT22;7723;52.170;9.978;2023-04-24T11:47:27;13.10;1.00
15241;DHT22;7723;52.170;9.978;2023-04-24T11:49:55;13.10;1.00
15241;DHT22;7723;52.170;9.978;2023-04-24T11:52:22;13.00;1.00
15241;DHT22;7723;52.170;9.978;2023-04-24T11:54:50;13.00;1.00
15241;DHT22;7723;52.170;9.978;2023-04-24T11:57:19;13.10;1.00
15241;DHT22;7723;52.170;9.978;2023-04-24T11:59:47;13.30;1.00
15241;DHT22;7723;52.170;9.978;2023-04-24T12:02:21;13.70;1.00
15241;DHT22;7723;52.170;9.978;2023-04-24T12:04:49;14.10;1.00
15241;DHT22;7723;52.170;9.978;2023-04-24T12:07:16;14.40;1.00
15241;DHT22;7723;52.170;9.978;2023-04-24T12:09:45;14.20;1.00
15241;DHT22;7723;52.170;9.978;2023-04-24T12:12:12;14.10;1.00
15241;DHT22;7723;52.170;9.978;2023-04-24T12:14:47;13.70;1.00
15241;DHT22;7723;52.170;9.978;2023-04-24T12:17:15;13.40;1.00
15241;DHT22;7723;52.170;9.978;2023-04-24T12:19:46;13.00;1.00
15241;DHT22;7723;52.170;9.978;2023-04-24T12:22:13;12.50;1.00
15241;DHT22;7723;52.170;9.978;2023-04-24T12:24:57;12.30;30.30
15241;DHT22;7723;52.170;9.978;2023-04-24T12:27:26;12.00;20.50
15241;DHT22;7723;52.170;9.978;2023-04-24T12:29:55;11.90;56.60
15241;DHT22;7723;52.170;9.978;2023-04-24T12:32:23;11.90;89.00
15241;DHT22;7723;52.170;9.978;2023-04-24T12:34:51;11.70;64.20
15241;DHT22;7723;52.170;9.978;2023-04-24T12:37:18;11.50;93.70
15241;DHT22;7723;52.170;9.978;2023-04-24T12:39:58;11.30;99.90
15241;DHT22;7723;52.170;9.978;2023-04-24T12:42:26;11.10;99.90
15241;DHT22;7723;52.170;9.978;2023-04-24T12:44:58;11.20;99.90
15241;DHT22;7723;52.170;9.978;2023-04-24T12:47:27;11.60;99.90
15241;DHT22;7723;52.170;9.978;2023-04-24T12:49:54;12.00;99.90
15241;DHT22;7723;52.170;9.978;2023-04-24T12:52:22;12.20;29.00
15241;DHT22;7723;52.170;9.978;2023-04-24T12:54:53;12.10;1.00
15241;DHT22;7723;52.170;9.978;2023-04-24T12:57:20;12.20;1.00
15241;DHT22;7723;52.170;9.978;2023-04-24T12:59:47;12.30;1.00
15241;DHT22;7723;52.170;9.978;2023-04-24T13:02:16;12.20;1.00
15241;DHT22;7723;52.170;9.978;2023-04-24T13:04:44;12.00;1.00
15241;DHT22;7723;52.170;9.978;2023-04-24T13:07:13;11.90;1.00
15241;DHT22;7723;52.170;9.978;2023-04-24T13:09:41;12.10;1.00
15241;DHT22;7723;52.170;9.978;2023-04-24T13:12:08;12.20;1.00
15241;DHT22;7723;52.170;9.978;2023-04-24T13:14:36;12.00;1.00
15241;DHT22;7723;52.170;9.978;2023-04-24T13:17:04;12.20;1.00
15241;DHT22;7723;52.170;9.978;2023-04-24T13:19:36;12.20;1.00
15241;DHT22;7723;52.170;9.978;2023-04-24T13:22:04;12.10;1.00
15241;DHT22;7723;52.170;9.978;2023-04-24T13:24:31;11.80;1.00
15241;DHT22;7723;52.170;9.978;2023-04-24T13:26:59;11.70;1.00
15241;DHT22;7723;52.170;9.978;2023-04-24T13:29:26;11.50;1.00
15241;DHT22;7723;52.170;9.978;2023-04-24T13:31:54;11.40;1.00
15241;DHT22;7723;52.170;9.978;2023-04-24T13:34:22;11.30;1.00
15241;DHT22;7723;52.170;9.978;2023-04-24T13:36:51;11.10;1.00
15241;DHT22;7723;52.170;9.978;2023-04-24T13:39:18;11.00;1.00
15241;DHT22;7723;52.170;9.978;2023-04-24T13:41:45;10.90;1.00
15241;DHT22;7723;52.170;9.978;2023-04-24T13:44:14;10.80;18.90
15241;DHT22;7723;52.170;9.978;2023-04-24T13:46:41;10.80;48.00
15241;DHT22;7723;52.170;9.978;2023-04-24T13:49:09;11.10;45.80
15241;DHT22;7723;52.170;9.978;2023-04-24T13:51:36;11.40;17.50
15241;DHT22;7723;52.170;9.978;2023-04-24T13:54:04;11.50;1.00
15241;DHT22;7723;52.170;9.978;2023-04-24T13:56:32;11.40;1.00
15241;DHT22;7723;52.170;9.978;2023-04-24T13:58:59;11.20;1.00
15241;DHT22;7723;52.170;9.978;2023-04-24T14:01:26;10.80;1.00
15241;DHT22;7723;52.170;9.978;2023-04-24T14:03:54;10.80;1.00
15241;DHT22;7723;52.170;9.978;2023-04-24T14:06:22;10.70;1.00
15241;DHT22;7723;52.170;9.978;2023-04-24T14:08:50;10.50;1.00
15241;DHT22;7723;52.170;9.978;2023-04-24T14:11:19;10.30;1.00
15241;DHT22;7723;52.170;9.978;2023-04-24T14:13:46;10.10;1.00
15241;DHT22;7723;52.170;9.978;2023-04-24T14:16:14;10.00;1.00
15241;DHT22;7723;52.170;9.978;2023-04-24T14:18:41;9.80;23.00
15241;DHT22;7723;52.170;9.978;2023-04-24T14:21:08;9.70;70.20
15241;DHT22;7723;52.170;9.978;2023-04-24T14:23:35;9.60;99.90
15241;DHT22;7723;52.170;9.978;2023-04-24T14:26:03;9.70;99.90
15241;DHT22;7723;52.170;9.978;2023-04-24T14:28:32;9.60;99.90
15241;DHT22;7723;52.170;9.978;2023-04-24T14:30:59;9.70;99.90
15241;DHT22;7723;52.170;9.978;2023-04-24T14:33:26;10.00;99.90
15241;DHT22;7723;52.170;9.978;2023-04-24T14:35:53;10.00;99.90
15241;DHT22;7723;52.170;9.978;2023-04-24T14:38:21;10.10;99.90
15241;DHT22;7723;52.170;9.978;2023-04-24T14:40:48;9.90;99.90
15241;DHT22;7723;52.170;9.978;2023-04-24T14:43:15;9.80;99.90
15241;DHT22;7723;52.170;9.978;2023-04-24T14:45:45;9.80;99.90
15241;DHT22;7723;52.170;9.978;2023-04-24T14:48:12;9.80;99.90
15241;DHT22;7723;52.170;9.978;2023-04-24T14:50:42;9.70;99.90
15241;DHT22;7723;52.170;9.978;2023-04-24T14:53:09;9.60;99.90
15241;DHT22;7723;52.170;9.978;2023-04-24T14:55:36;9.50;99.90
15241;DHT22;7723;52.170;9.978;2023-04-24T14:58:03;9.50;99.90
15241;DHT22;7723;52.170;9.978;2023-04-24T15:00:31;9.30;99.90
15241;DHT22;7723;52.170;9.978;2023-04-24T15:03:00;9.20;99.90
15241;DHT22;7723;52.170;9.978;2023-04-24T15:05:27;9.10;99.90
15241;DHT22;7723;52.170;9.978;2023-04-24T15:07:55;8.90;99.90
15241;DHT22;7723;52.170;9.978;2023-04-24T15:10:23;9.00;99.90
15241;DHT22;7723;52.170;9.978;2023-04-24T15:12:51;9.00;99.90
15241;DHT22;7723;52.170;9.978;2023-04-24T15:15:18;9.20;99.90
15241;DHT22;7723;52.170;9.978;2023-04-24T15:17:45;9.10;99.90
15241;DHT22;7723;52.170;9.978;2023-04-24T15:20:14;9.30;99.90
15241;DHT22;7723;52.170;9.978;2023-04-24T15:22:41;9.30;99.90
15241;DHT22;7723;52.170;9.978;2023-04-24T15:25:09;9.10;99.90
15241;DHT22;7723;52.170;9.978;2023-04-24T15:27:41;9.10;99.90
15241;DHT22;7723;52.170;9.978;2023-04-24T15:30:08;9.10;99.90
15241;DHT22;7723;52.170;9.978;2023-04-24T15:32:36;8.90;99.90
15241;DHT22;7723;52.170;9.978;2023-04-24T15:35:03;8.80;99.90
15241;DHT22;7723;52.170;9.978;2023-04-24T15:37:32;8.80;99.90
15241;DHT22;7723;52.170;9.978;2023-04-24T15:39:59;8.80;99.90
15241;DHT22;7723;52.170;9.978;2023-04-24T15:42:26;8.80;99.90
15241;DHT22;7723;52.170;9.978;2023-04-24T15:44:53;8.70;99.90
15241;DHT22;7723;52.170;9.978;2023-04-24T15:47:20;8.90;99.90
15241;DHT22;7723;52.170;9.978;2023-04-24T15:49:47;9.00;99.90
15241;DHT22;7723;52.170;9.978;2023-04-24T15:52:14;9.20;99.90
15241;DHT22;7723;52.170;9.978;2023-04-24T15:54:43;9.30;99.90
15241;DHT22;7723;52.170;9.978;2023-04-24T15:57:10;9.30;99.90
15241;DHT22;7723;52.170;9.978;2023-04-24T15:59:38;9.30;99.90